createdAt,value
2022-09-17T00:00:11.365Z,94149.25
2022-09-17T00:02:46.196Z,94142.41
2022-09-17T00:05:35.411Z,94153.44
2022-09-17T00:08:08.454Z,94147.59
2022-09-17T00:10:55.426Z,94151.19
2022-09-17T00:13:29.462Z,94147.06
2022-09-17T00:16:19.467Z,94150.50
2022-09-17T00:18:52.505Z,94150.53
2022-09-17T00:21:39.370Z,94136.91
2022-09-17T00:24:20.379Z,94140.25
2022-09-17T00:27:14.404Z,94140.16
2022-09-17T00:30:08.371Z,94132.47
2022-09-17T00:33:04.371Z,94134.16
2022-09-17T00:35:58.390Z,94129.09
2022-09-17T00:38:52.383Z,94136.72
2022-09-17T00:41:48.390Z,94138.31
2022-09-17T00:45:05.440Z,94148.47
2022-09-17T00:48:04.377Z,94139.13
2022-09-17T00:50:51.420Z,94141.69
2022-09-17T00:53:35.421Z,94146.75
2022-09-17T00:56:42.398Z,94129.72
2022-09-17T00:59:30.377Z,94126.31
2022-09-17T01:02:03.527Z,94122.84
2022-09-17T01:04:50.406Z,94126.25
2022-09-17T01:07:35.429Z,94132.22
2022-09-17T01:10:49.428Z,94128.94
2022-09-17T01:14:25.419Z,94124.78
2022-09-17T01:16:58.694Z,94107.91
2022-09-17T01:20:04.404Z,94101.91
2022-09-17T01:22:59.510Z,94105.25
2022-09-17T01:26:14.392Z,94112.13
2022-09-17T01:29:23.411Z,94123.16
2022-09-17T01:32:22.398Z,94117.91
2022-09-17T01:35:34.414Z,94111.91
2022-09-17T01:38:50.395Z,94109.44
2022-09-17T01:41:37.605Z,94120.72
2022-09-17T01:44:52.397Z,94119.97
2022-09-17T01:47:40.417Z,94111.47
2022-09-17T01:50:59.420Z,94103.81
2022-09-17T01:54:09.415Z,94109.88
2022-09-17T01:57:15.414Z,94087.66
2022-09-17T02:00:21.379Z,94078.31
2022-09-17T02:03:25.415Z,94076.59
2022-09-17T02:06:09.546Z,94076.63
2022-09-17T02:09:03.427Z,94078.38
2022-09-17T02:11:39.506Z,94085.22
2022-09-17T02:14:31.439Z,94092.84
2022-09-17T02:17:20.436Z,94100.53
2022-09-17T02:20:14.443Z,94109.88
2022-09-17T02:23:09.429Z,94115.06
2022-09-17T02:25:50.562Z,94118.53
2022-09-17T02:28:48.443Z,94114.28
2022-09-17T02:31:21.641Z,94116.00
2022-09-17T02:34:12.442Z,94115.22
2022-09-17T02:36:45.530Z,94123.00
2022-09-17T02:39:33.441Z,94133.22
2022-09-17T02:42:35.450Z,94129.81
2022-09-17T02:45:46.457Z,94128.09
2022-09-17T02:48:54.444Z,94124.69
2022-09-17T02:51:56.535Z,94115.34
2022-09-17T02:54:49.408Z,94113.78
2022-09-17T02:57:33.553Z,94108.78
2022-09-17T03:00:24.465Z,94115.72
2022-09-17T03:03:12.470Z,94109.81
2022-09-17T03:06:07.461Z,94110.88
2022-09-17T03:08:54.466Z,94102.50
2022-09-17T03:11:36.616Z,94107.59
2022-09-17T03:14:23.456Z,94101.69
2022-09-17T03:16:56.547Z,94100.03
2022-09-17T03:19:43.460Z,94094.28
2022-09-17T03:22:16.533Z,94089.25
2022-09-17T03:25:03.454Z,94097.94
2022-09-17T03:27:43.462Z,94093.78
2022-09-17T03:30:37.454Z,94087.91
2022-09-17T03:33:24.502Z,94083.72
2022-09-17T03:36:04.465Z,94087.09
2022-09-17T03:39:00.800Z,94083.78
2022-09-17T03:41:56.522Z,94080.34
2022-09-17T03:44:52.538Z,94075.16
2022-09-17T03:47:39.456Z,94065.84
2022-09-17T03:50:20.510Z,94075.28
2022-09-17T03:53:07.470Z,94066.97
2022-09-17T03:55:40.566Z,94070.50
2022-09-17T03:58:27.468Z,94076.56
2022-09-17T04:01:00.586Z,94069.75
2022-09-17T04:03:47.490Z,94072.47
2022-09-17T04:06:27.479Z,94075.91
2022-09-17T04:09:15.462Z,94075.13
2022-09-17T04:11:48.596Z,94075.25
2022-09-17T04:14:35.463Z,94069.31
2022-09-17T04:17:15.488Z,94071.97
2022-09-17T04:20:02.509Z,94072.81
2022-09-17T04:22:44.801Z,94071.09
2022-09-17T04:25:38.513Z,94049.06
2022-09-17T04:28:34.780Z,94062.03
2022-09-17T04:31:29.519Z,94062.19
2022-09-17T04:34:16.508Z,94056.28
2022-09-17T04:36:56.521Z,94060.53
2022-09-17T04:39:44.508Z,94069.97
2022-09-17T04:42:24.514Z,94071.78
2022-09-17T04:45:11.525Z,94065.06
2022-09-17T04:47:54.525Z,94066.00
2022-09-17T04:50:41.512Z,94068.66
2022-09-17T04:53:21.507Z,94075.59
2022-09-17T04:56:15.515Z,94069.69
2022-09-17T04:59:02.518Z,94066.34
2022-09-17T05:01:42.559Z,94078.28
2022-09-17T05:04:29.517Z,94073.22
2022-09-17T05:07:02.901Z,94064.72
2022-09-17T05:09:49.514Z,94063.00
2022-09-17T05:12:22.592Z,94066.34
2022-09-17T05:15:10.507Z,94066.19
2022-09-17T05:17:43.605Z,94065.22
2022-09-17T05:20:30.521Z,94066.94
2022-09-17T05:23:03.610Z,94072.09
2022-09-17T05:25:50.505Z,94075.41
2022-09-17T05:28:23.613Z,94071.00
2022-09-17T05:31:17.595Z,94067.66
2022-09-17T05:34:12.532Z,94073.63
2022-09-17T05:36:59.519Z,94076.19
2022-09-17T05:39:33.105Z,94088.81
2022-09-17T05:42:19.519Z,94090.41
2022-09-17T05:44:52.639Z,94086.00
2022-09-17T05:47:39.540Z,94081.50
2022-09-17T05:50:12.787Z,94089.03
2022-09-17T05:53:00.581Z,94086.19
2022-09-17T05:55:33.673Z,94079.81
2022-09-17T05:58:21.521Z,94076.13
2022-09-17T06:01:01.553Z,94068.94
2022-09-17T06:03:34.622Z,94066.09
2022-09-17T06:06:21.516Z,94069.91
2022-09-17T06:08:54.634Z,94067.03
2022-09-17T06:11:42.528Z,94069.28
2022-09-17T06:14:16.350Z,94084.56
2022-09-17T06:17:02.545Z,94084.44
2022-09-17T06:19:35.623Z,94092.91
2022-09-17T06:22:25.527Z,94081.66
2022-09-17T06:25:07.541Z,94079.84
2022-09-17T06:27:54.543Z,94077.16
2022-09-17T06:30:34.551Z,94070.94
2022-09-17T06:33:21.567Z,94074.13
2022-09-17T06:35:54.669Z,94063.75
2022-09-17T06:38:42.577Z,94064.47
2022-09-17T06:41:23.573Z,94059.94
2022-09-17T06:44:11.545Z,94065.66
2022-09-17T06:46:51.589Z,94077.41
2022-09-17T06:49:45.535Z,94079.72
2022-09-17T06:52:32.560Z,94075.19
2022-09-17T06:55:05.650Z,94068.03
2022-09-17T06:57:52.558Z,94071.13
2022-09-17T07:00:25.898Z,94069.97
2022-09-17T07:03:12.574Z,94067.78
2022-09-17T07:05:45.973Z,94076.78
2022-09-17T07:08:32.561Z,94069.47
2022-09-17T07:11:05.661Z,94060.56
2022-09-17T07:13:52.575Z,94065.09
2022-09-17T07:16:26.802Z,94064.66
2022-09-17T07:19:14.906Z,94080.16
2022-09-17T07:21:48.782Z,94066.56
2022-09-17T07:24:35.563Z,94084.75
2022-09-17T07:27:08.660Z,94075.75
2022-09-17T07:30:02.561Z,94065.97
2022-09-17T07:32:49.579Z,94070.03
2022-09-17T07:35:29.573Z,94078.44
2022-09-17T07:38:23.592Z,94082.88
2022-09-17T07:41:24.581Z,94086.53
2022-09-17T07:44:13.567Z,94090.19
2022-09-17T07:46:53.635Z,94091.19
2022-09-17T07:49:47.570Z,94093.94
2022-09-17T07:52:41.600Z,94100.06
2022-09-17T07:55:30.581Z,94100.13
2022-09-17T07:58:03.715Z,94100.19
2022-09-17T08:00:50.591Z,94102.75
2022-09-17T08:03:23.666Z,94107.06
2022-09-17T08:06:21.592Z,94109.63
2022-09-17T08:09:01.572Z,94105.25
2022-09-17T08:11:56.655Z,94083.81
2022-09-17T08:14:50.598Z,94083.72
2022-09-17T08:17:44.598Z,94074.28
2022-09-17T08:20:32.584Z,94073.19
2022-09-17T08:23:06.722Z,94071.38
2022-09-17T08:26:05.615Z,94072.91
2022-09-17T08:28:45.603Z,94062.50
2022-09-17T08:31:40.740Z,94059.78
2022-09-17T08:34:27.601Z,94049.44
2022-09-17T08:37:00.772Z,94057.00
2022-09-17T08:39:47.618Z,94063.78
2022-09-17T08:42:55.592Z,94065.50
2022-09-17T08:45:42.613Z,94053.56
2022-09-17T08:48:20.736Z,94040.75
2022-09-17T08:51:17.611Z,94036.53
2022-09-17T08:54:15.605Z,94054.31
2022-09-17T08:57:43.631Z,94045.56
2022-09-17T09:00:31.604Z,94060.00
2022-09-17T09:03:43.616Z,94054.66
2022-09-17T09:06:43.618Z,94045.13
2022-09-17T09:09:41.662Z,94046.72
2022-09-17T09:12:40.672Z,94031.28
2022-09-17T09:15:53.652Z,94037.09
2022-09-17T09:18:32.730Z,94046.50
2022-09-17T09:21:37.608Z,94041.81
2022-09-17T09:24:25.255Z,94044.88
2022-09-17T09:27:46.637Z,94041.03
2022-09-17T09:30:24.957Z,94038.06
2022-09-17T09:33:40.892Z,94036.94
2022-09-17T09:36:22.167Z,94040.13
2022-09-17T09:39:14.643Z,94046.03
2022-09-17T09:42:16.642Z,94043.16
2022-09-17T09:45:35.644Z,94030.38
2022-09-17T09:48:47.655Z,94024.47
2022-09-17T09:52:08.656Z,94026.09
2022-09-17T09:55:08.742Z,94033.75
2022-09-17T09:58:02.642Z,94025.97
2022-09-17T10:00:44.643Z,94025.00
2022-09-17T10:03:39.672Z,94024.16
2022-09-17T10:06:15.766Z,94023.31
2022-09-17T10:09:02.656Z,94023.25
2022-09-17T10:11:39.549Z,94030.81
2022-09-17T10:14:34.663Z,94049.44
2022-09-17T10:17:36.660Z,94052.91
2022-09-17T10:20:31.646Z,94053.06
2022-09-17T10:23:18.663Z,94065.94
2022-09-17T10:25:54.040Z,94061.63
2022-09-17T10:28:57.733Z,94061.84
2022-09-17T10:31:37.707Z,94053.47
2022-09-17T10:34:39.677Z,94056.94
2022-09-17T10:37:41.661Z,94064.81
2022-09-17T10:40:27.440Z,94064.00
2022-09-17T10:43:34.681Z,94068.28
2022-09-17T10:46:15.710Z,94060.72
2022-09-17T10:49:30.693Z,94060.88
2022-09-17T10:52:23.675Z,94059.19
2022-09-17T10:55:19.697Z,94052.47
2022-09-17T10:58:21.671Z,94049.06
2022-09-17T11:01:40.786Z,94049.13
2022-09-17T11:04:41.685Z,94049.81
2022-09-17T11:07:46.697Z,94050.41
2022-09-17T11:10:50.694Z,94042.63
2022-09-17T11:14:08.709Z,94049.38
2022-09-17T11:16:58.683Z,94061.25
2022-09-17T11:20:28.702Z,94064.72
2022-09-17T11:23:40.696Z,94055.56
2022-09-17T11:26:40.732Z,94059.19
2022-09-17T11:30:11.694Z,94055.03
2022-09-17T11:33:21.720Z,94058.75
2022-09-17T11:36:30.679Z,94065.00
2022-09-17T11:39:30.727Z,94059.16
2022-09-17T11:42:31.704Z,94049.84
2022-09-17T11:45:32.675Z,94055.16
2022-09-17T11:48:18.703Z,94047.44
2022-09-17T11:51:14.688Z,94035.50
2022-09-17T11:53:53.796Z,94031.19
2022-09-17T11:56:47.709Z,94023.47
2022-09-17T11:59:47.066Z,94020.97
2022-09-17T12:02:56.880Z,94016.78
2022-09-17T12:05:32.824Z,94018.53
2022-09-17T12:09:01.724Z,94009.97
2022-09-17T12:11:53.720Z,94016.03
2022-09-17T12:14:51.733Z,94019.59
2022-09-17T12:17:36.803Z,94011.88
2022-09-17T12:20:45.712Z,94007.78
2022-09-17T12:23:24.815Z,94008.81
2022-09-17T12:26:40.720Z,94006.47
2022-09-17T12:29:48.722Z,93999.81
2022-09-17T12:33:00.734Z,93993.06
2022-09-17T12:36:06.711Z,93989.00
2022-09-17T12:39:24.729Z,93990.72
2022-09-17T12:42:22.711Z,93996.84
2022-09-17T12:45:11.731Z,93978.84
2022-09-17T12:48:19.733Z,93962.66
2022-09-17T12:51:59.753Z,93964.41
2022-09-17T12:54:54.738Z,93965.22
2022-09-17T12:58:05.750Z,93967.81
2022-09-17T13:01:02.771Z,93955.03
2022-09-17T13:03:45.758Z,93946.47
2022-09-17T13:07:09.728Z,93946.63
2022-09-17T13:10:06.720Z,93944.06
2022-09-17T13:12:59.750Z,93948.38
2022-09-17T13:15:42.790Z,93949.25
2022-09-17T13:18:41.422Z,93936.41
2022-09-17T13:21:20.969Z,93938.91
2022-09-17T13:24:08.749Z,93940.56
2022-09-17T13:26:45.799Z,93951.63
2022-09-17T13:29:53.771Z,93959.31
2022-09-17T13:32:39.789Z,93965.22
2022-09-17T13:35:29.756Z,93960.19
2022-09-17T13:38:06.891Z,93961.84
2022-09-17T13:40:53.753Z,93958.44
2022-09-17T13:43:37.769Z,93955.03
2022-09-17T13:46:38.817Z,93956.75
2022-09-17T13:49:25.795Z,93949.03
2022-09-17T13:52:11.641Z,93945.81
2022-09-17T13:54:58.763Z,93948.50
2022-09-17T13:57:33.915Z,93954.59
2022-09-17T14:00:55.815Z,93947.97
2022-09-17T14:03:34.923Z,93936.22
2022-09-17T14:06:21.761Z,93930.31
2022-09-17T14:08:58.057Z,93923.44
2022-09-17T14:11:44.764Z,93926.16
2022-09-17T14:14:20.863Z,93910.72
2022-09-17T14:17:07.778Z,93909.91
2022-09-17T14:19:57.880Z,93918.50
2022-09-17T14:22:44.792Z,93940.03
2022-09-17T14:25:26.877Z,93951.25
2022-09-17T14:28:49.878Z,93945.41
2022-09-17T14:31:34.783Z,93937.75
2022-09-17T14:34:36.773Z,93919.03
2022-09-17T14:37:27.822Z,93918.28
2022-09-17T14:40:00.910Z,93908.97
2022-09-17T14:42:47.791Z,93909.94
2022-09-17T14:45:25.879Z,93912.59
2022-09-17T14:48:37.798Z,93922.16
2022-09-17T14:51:32.787Z,93929.94
2022-09-17T14:54:36.232Z,93932.59
2022-09-17T14:57:33.803Z,93936.13
2022-09-17T15:00:14.790Z,93942.38
2022-09-17T15:03:09.832Z,93940.78
2022-09-17T15:06:03.792Z,93937.44
2022-09-17T15:08:58.796Z,93922.25
2022-09-17T15:11:48.800Z,93920.59
2022-09-17T15:14:48.928Z,93922.44
2022-09-17T15:17:36.797Z,93926.00
2022-09-17T15:20:11.916Z,93926.91
2022-09-17T15:23:07.822Z,93929.47
2022-09-17T15:25:43.171Z,93940.69
2022-09-17T15:28:44.814Z,93940.84
2022-09-17T15:31:27.069Z,93938.34
2022-09-17T15:34:16.831Z,93937.56
2022-09-17T15:37:09.997Z,93939.31
2022-09-17T15:39:59.869Z,93947.97
2022-09-17T15:42:37.912Z,93957.41
2022-09-17T15:45:32.795Z,93961.78
2022-09-17T15:48:11.022Z,93958.41
2022-09-17T15:51:00.812Z,93964.34
2022-09-17T15:53:35.977Z,93964.41
2022-09-17T15:56:25.826Z,93966.22
2022-09-17T15:59:14.817Z,93968.91
2022-09-17T16:02:04.947Z,93968.16
2022-09-17T16:04:48.822Z,93971.69
2022-09-17T16:07:36.842Z,93970.88
2022-09-17T16:10:13.920Z,93960.72
2022-09-17T16:13:02.827Z,93958.28
2022-09-17T16:15:42.846Z,93960.84
2022-09-17T16:18:29.823Z,93959.22
2022-09-17T16:21:10.847Z,93961.81
2022-09-17T16:24:00.843Z,93954.19
2022-09-17T16:26:46.851Z,93962.91
2022-09-17T16:29:33.839Z,93960.47
2022-09-17T16:32:07.491Z,93958.88
2022-09-17T16:34:53.842Z,93958.16
2022-09-17T16:37:27.053Z,93956.56
2022-09-17T16:40:17.928Z,93949.91
2022-09-17T16:42:50.930Z,93957.75
2022-09-17T16:45:38.862Z,93942.50
2022-09-17T16:48:19.866Z,93943.56
2022-09-17T16:51:14.850Z,93940.34
2022-09-17T16:54:03.850Z,93946.44
2022-09-17T16:56:36.939Z,93946.50
2022-09-17T16:59:23.873Z,93946.69
2022-09-17T17:01:57.017Z,93941.63
2022-09-17T17:04:43.936Z,93934.88
2022-09-17T17:07:17.083Z,93939.19
2022-09-17T17:10:05.863Z,93947.91
2022-09-17T17:12:38.973Z,93945.41
2022-09-17T17:15:25.860Z,93939.56
2022-09-17T17:17:59.975Z,93937.00
2022-09-17T17:20:46.862Z,93937.81
2022-09-17T17:23:20.197Z,93937.97
2022-09-17T17:26:06.869Z,93925.19
2022-09-17T17:28:47.910Z,93933.03
2022-09-17T17:31:43.931Z,93928.88
2022-09-17T17:34:30.992Z,93908.47
2022-09-17T17:37:07.350Z,93906.09
2022-09-17T17:39:55.963Z,93907.97
2022-09-17T17:42:41.888Z,93911.50
2022-09-17T17:45:35.916Z,93910.66
2022-09-17T17:48:22.877Z,93912.31
2022-09-17T17:50:56.916Z,93903.91
2022-09-17T17:53:44.895Z,93892.00
2022-09-17T17:56:26.886Z,93886.88
2022-09-17T17:59:20.883Z,93885.34
2022-09-17T18:02:07.994Z,93888.81
2022-09-17T18:04:47.849Z,93899.13
2022-09-17T18:07:42.882Z,93923.81
2022-09-17T18:10:30.907Z,93911.09
2022-09-17T18:13:03.984Z,93905.19
2022-09-17T18:15:59.937Z,93901.72
2022-09-17T18:18:48.902Z,93895.78
2022-09-17T18:21:42.880Z,93900.91
2022-09-17T18:24:29.912Z,93907.81
2022-09-17T18:27:03.000Z,93915.75
2022-09-17T18:29:49.907Z,93926.00
2022-09-17T18:32:22.990Z,93915.00
2022-09-17T18:35:09.909Z,93921.00
2022-09-17T18:37:43.001Z,93915.91
2022-09-17T18:40:29.932Z,93921.91
2022-09-17T18:43:03.006Z,93921.03
2022-09-17T18:45:49.915Z,93915.91
2022-09-17T18:48:22.984Z,93917.66
2022-09-17T18:51:14.919Z,93931.38
2022-09-17T18:53:51.514Z,93943.34
2022-09-17T18:56:39.916Z,93938.22
2022-09-17T18:59:13.203Z,93942.50
2022-09-17T19:01:59.985Z,93928.03
2022-09-17T19:04:33.004Z,93912.66
2022-09-17T19:07:19.920Z,93906.72
2022-09-17T19:09:59.913Z,93913.50
2022-09-17T19:12:47.919Z,93908.41
2022-09-17T19:15:30.920Z,93919.63
2022-09-17T19:18:17.913Z,93912.03
2022-09-17T19:20:57.905Z,93921.34
2022-09-17T19:23:55.922Z,93924.81
2022-09-17T19:26:57.917Z,93923.97
2022-09-17T19:29:44.945Z,93922.31
2022-09-17T19:32:24.919Z,93913.81
2022-09-17T19:35:12.957Z,93908.72
2022-09-17T19:37:46.099Z,93910.50
2022-09-17T19:40:32.986Z,93902.88
2022-09-17T19:43:06.043Z,93908.88
2022-09-17T19:45:52.915Z,93904.63
2022-09-17T19:48:26.101Z,93908.00
2022-09-17T19:51:12.947Z,93910.56
2022-09-17T19:53:47.028Z,93914.03
2022-09-17T19:56:33.942Z,93919.97
2022-09-17T19:59:13.926Z,93907.19
2022-09-17T20:02:07.973Z,93920.75
2022-09-17T20:04:54.938Z,93913.13
2022-09-17T20:07:34.973Z,93914.81
2022-09-17T20:10:28.937Z,93913.97
2022-09-17T20:13:15.928Z,93903.78
2022-09-17T20:15:55.992Z,93904.69
2022-09-17T20:18:42.929Z,93907.19
2022-09-17T20:21:31.946Z,93910.56
2022-09-17T20:24:18.950Z,93909.03
2022-09-17T20:26:58.990Z,93908.13
2022-09-17T20:29:52.953Z,93902.19
2022-09-17T20:32:46.941Z,93899.69
2022-09-17T20:35:40.991Z,93900.50
2022-09-17T20:41:51.986Z,93891.94
2022-09-17T20:44:38.941Z,93888.59
2022-09-17T20:47:12.079Z,93891.16
2022-09-17T20:50:00.946Z,93899.75
2022-09-17T20:52:40.974Z,93898.03
2022-09-17T20:55:36.004Z,93892.94
2022-09-17T20:58:29.968Z,93876.00
2022-09-17T21:01:27.053Z,93871.88
2022-09-17T21:04:08.083Z,93866.09
2022-09-17T21:06:58.964Z,93864.56
2022-09-17T21:09:32.078Z,93864.75
2022-09-17T21:12:18.986Z,93862.22
2022-09-17T21:14:52.075Z,93869.13
2022-09-17T21:17:39.962Z,93867.59
2022-09-17T21:20:14.060Z,93861.75
2022-09-17T21:23:00.968Z,93866.94
2022-09-17T21:25:40.994Z,93864.44
2022-09-17T21:28:34.981Z,93865.41
2022-09-17T21:31:33.039Z,93867.97
2022-09-17T21:34:20.978Z,93863.03
2022-09-17T21:36:55.139Z,93862.16
2022-09-17T21:39:41.990Z,93866.44
2022-09-17T21:42:15.083Z,93864.78
2022-09-17T21:45:01.994Z,93864.84
2022-09-17T21:47:35.076Z,93858.94
2022-09-17T21:50:21.981Z,93854.78
2022-09-17T21:53:01.989Z,93855.69
2022-09-17T21:55:48.980Z,93848.84
2022-09-17T21:58:31.992Z,93839.50
2022-09-17T22:01:22.050Z,93849.81
2022-09-17T22:04:02.090Z,93855.78
2022-09-17T22:06:56.998Z,93868.53
2022-09-17T22:09:50.987Z,93859.19
2022-09-17T22:12:45.013Z,93864.38
2022-09-17T22:15:31.994Z,93862.63
2022-09-17T22:18:13.064Z,93877.22
2022-09-17T22:21:01.010Z,93873.00
2022-09-17T22:23:41.032Z,93872.13
2022-09-17T22:26:38.004Z,93862.81
2022-09-17T22:29:33.983Z,93861.16
2022-09-17T22:32:29.014Z,93855.22
2022-09-17T22:35:22.987Z,93860.34
2022-09-17T22:38:10.019Z,93859.56
2022-09-17T22:40:43.149Z,93848.47
2022-09-17T22:43:30.026Z,93849.38
2022-09-17T22:46:03.179Z,93861.34
2022-09-17T22:48:50.009Z,93863.06
2022-09-17T22:51:25.147Z,93857.09
2022-09-17T22:54:13.014Z,93854.53
2022-09-17T22:56:47.188Z,93840.16
2022-09-17T22:59:34.015Z,93841.88
2022-09-17T23:02:07.691Z,93844.47
2022-09-17T23:04:54.030Z,93839.53
2022-09-17T23:07:27.104Z,93836.16
2022-09-17T23:10:14.045Z,93836.22
2022-09-17T23:12:47.127Z,93832.00
2022-09-17T23:15:34.027Z,93820.94
2022-09-17T23:18:07.124Z,93815.88
2022-09-17T23:21:07.053Z,93823.59
2022-09-17T23:23:42.238Z,93819.38
2022-09-17T23:26:32.030Z,93809.19
2022-09-17T23:29:07.133Z,93802.44
2022-09-17T23:32:01.029Z,93807.66
2022-09-17T23:34:55.027Z,93800.06
2022-09-17T23:37:49.048Z,93805.16
2022-09-17T23:40:43.029Z,93789.09
2022-09-17T23:43:30.054Z,93794.97
2022-09-17T23:46:03.246Z,93792.47
2022-09-17T23:48:50.053Z,93791.66
2022-09-17T23:51:23.190Z,93789.91
2022-09-17T23:54:12.049Z,93789.88
2022-09-17T23:56:45.157Z,93788.13
2022-09-17T23:59:32.048Z,93778.81
